sensor_id;sensor_type;location;lat;lon;timestamp;temperature;humidity
55828;DHT22;41758;51.992;5.890;2023-07-08T00:00:28;26.90;37.50
55828;DHT22;41758;51.992;5.890;2023-07-08T00:02:54;26.90;37.60
55828;DHT22;41758;51.992;5.890;2023-07-08T00:05:21;26.90;37.60
55828;DHT22;41758;51.992;5.890;2023-07-08T00:07:48;26.80;37.70
55828;DHT22;41758;51.992;5.890;2023-07-08T00:10:23;26.80;37.80
55828;DHT22;41758;51.992;5.890;2023-07-08T00:12:51;26.70;37.80
55828;DHT22;41758;51.992;5.890;2023-07-08T00:15:18;26.70;38.00
55828;DHT22;41758;51.992;5.890;2023-07-08T00:17:45;26.60;38.00
55828;DHT22;41758;51.992;5.890;2023-07-08T00:20:17;26.60;38.10
55828;DHT22;41758;51.992;5.890;2023-07-08T00:22:44;26.60;38.10
55828;DHT22;41758;51.992;5.890;2023-07-08T00:25:16;26.50;38.30
55828;DHT22;41758;51.992;5.890;2023-07-08T00:27:42;26.50;38.30
55828;DHT22;41758;51.992;5.890;2023-07-08T00:32:49;26.40;38.40
55828;DHT22;41758;51.992;5.890;2023-07-08T00:35:33;26.40;38.40
55828;DHT22;41758;51.992;5.890;2023-07-08T00:38:00;26.40;38.50
55828;DHT22;41758;51.992;5.890;2023-07-08T00:40:38;26.30;38.50
55828;DHT22;41758;51.992;5.890;2023-07-08T00:43:14;26.30;38.60
55828;DHT22;41758;51.992;5.890;2023-07-08T00:45:52;26.30;38.70
55828;DHT22;41758;51.992;5.890;2023-07-08T00:48:40;26.30;38.70
55828;DHT22;41758;51.992;5.890;2023-07-08T00:51:08;26.30;38.70
55828;DHT22;41758;51.992;5.890;2023-07-08T00:53:36;26.20;38.80
55828;DHT22;41758;51.992;5.890;2023-07-08T00:56:06;26.20;38.80
55828;DHT22;41758;51.992;5.890;2023-07-08T00:58:39;26.10;38.90
55828;DHT22;41758;51.992;5.890;2023-07-08T01:01:07;26.10;38.90
55828;DHT22;41758;51.992;5.890;2023-07-08T01:03:43;26.10;39.00
55828;DHT22;41758;51.992;5.890;2023-07-08T01:06:09;26.00;39.20
55828;DHT22;41758;51.992;5.890;2023-07-08T01:08:35;26.00;39.20
55828;DHT22;41758;51.992;5.890;2023-07-08T01:11:03;25.90;39.30
55828;DHT22;41758;51.992;5.890;2023-07-08T01:13:34;25.90;39.30
55828;DHT22;41758;51.992;5.890;2023-07-08T01:16:00;25.90;39.30
55828;DHT22;41758;51.992;5.890;2023-07-08T01:18:26;25.90;39.40
55828;DHT22;41758;51.992;5.890;2023-07-08T01:20:53;25.80;39.50
55828;DHT22;41758;51.992;5.890;2023-07-08T01:23:22;25.80;39.50
55828;DHT22;41758;51.992;5.890;2023-07-08T01:25:48;25.80;39.50
55828;DHT22;41758;51.992;5.890;2023-07-08T01:28:14;25.70;39.60
55828;DHT22;41758;51.992;5.890;2023-07-08T01:30:43;25.70;39.60
55828;DHT22;41758;51.992;5.890;2023-07-08T01:33:17;25.70;39.70
55828;DHT22;41758;51.992;5.890;2023-07-08T01:35:45;25.60;39.70
55828;DHT22;41758;51.992;5.890;2023-07-08T01:38:14;25.60;39.80
55828;DHT22;41758;51.992;5.890;2023-07-08T01:40:50;25.60;39.90
55828;DHT22;41758;51.992;5.890;2023-07-08T01:43:16;25.60;40.00
55828;DHT22;41758;51.992;5.890;2023-07-08T01:45:42;25.50;40.00
55828;DHT22;41758;51.992;5.890;2023-07-08T01:48:14;25.40;40.20
55828;DHT22;41758;51.992;5.890;2023-07-08T01:50:56;25.40;40.20
55828;DHT22;41758;51.992;5.890;2023-07-08T01:53:34;25.40;40.20
55828;DHT22;41758;51.992;5.890;2023-07-08T01:56:01;25.40;40.30
55828;DHT22;41758;51.992;5.890;2023-07-08T01:58:27;25.30;40.50
55828;DHT22;41758;51.992;5.890;2023-07-08T02:00:53;25.30;40.50
55828;DHT22;41758;51.992;5.890;2023-07-08T02:03:20;25.30;40.50
55828;DHT22;41758;51.992;5.890;2023-07-08T02:05:47;25.30;40.60
55828;DHT22;41758;51.992;5.890;2023-07-08T02:08:13;25.30;40.60
55828;DHT22;41758;51.992;5.890;2023-07-08T02:10:41;25.30;40.70
55828;DHT22;41758;51.992;5.890;2023-07-08T02:13:06;25.20;40.80
55828;DHT22;41758;51.992;5.890;2023-07-08T02:15:33;25.20;40.90
55828;DHT22;41758;51.992;5.890;2023-07-08T02:17:59;25.20;40.90
55828;DHT22;41758;51.992;5.890;2023-07-08T02:20:24;25.10;41.00
55828;DHT22;41758;51.992;5.890;2023-07-08T02:22:51;25.20;41.20
55828;DHT22;41758;51.992;5.890;2023-07-08T02:25:17;25.10;41.30
55828;DHT22;41758;51.992;5.890;2023-07-08T02:27:44;25.10;41.30
55828;DHT22;41758;51.992;5.890;2023-07-08T02:30:10;25.10;41.30
55828;DHT22;41758;51.992;5.890;2023-07-08T02:32:37;25.00;41.40
55828;DHT22;41758;51.992;5.890;2023-07-08T02:35:07;25.00;41.40
55828;DHT22;41758;51.992;5.890;2023-07-08T02:37:33;25.00;41.40
55828;DHT22;41758;51.992;5.890;2023-07-08T02:39:59;25.00;41.50
55828;DHT22;41758;51.992;5.890;2023-07-08T02:42:26;25.00;41.50
55828;DHT22;41758;51.992;5.890;2023-07-08T02:44:52;25.00;41.50
55828;DHT22;41758;51.992;5.890;2023-07-08T02:47:17;25.00;41.60
55828;DHT22;41758;51.992;5.890;2023-07-08T02:49:43;25.00;41.70
55828;DHT22;41758;51.992;5.890;2023-07-08T02:52:09;24.90;41.70
55828;DHT22;41758;51.992;5.890;2023-07-08T02:54:35;24.90;41.80
55828;DHT22;41758;51.992;5.890;2023-07-08T02:57:01;24.90;41.90
55828;DHT22;41758;51.992;5.890;2023-07-08T02:59:26;24.90;41.90
55828;DHT22;41758;51.992;5.890;2023-07-08T03:01:55;24.80;42.00
55828;DHT22;41758;51.992;5.890;2023-07-08T03:04:20;24.90;42.10
55828;DHT22;41758;51.992;5.890;2023-07-08T03:06:50;24.80;42.10
55828;DHT22;41758;51.992;5.890;2023-07-08T03:09:16;24.80;42.20
55828;DHT22;41758;51.992;5.890;2023-07-08T03:11:43;24.70;42.30
55828;DHT22;41758;51.992;5.890;2023-07-08T03:14:09;24.70;42.30
55828;DHT22;41758;51.992;5.890;2023-07-08T03:16:35;24.70;42.30
55828;DHT22;41758;51.992;5.890;2023-07-08T03:19:01;24.70;42.40
55828;DHT22;41758;51.992;5.890;2023-07-08T03:21:28;24.60;42.40
55828;DHT22;41758;51.992;5.890;2023-07-08T03:23:54;24.60;42.40
55828;DHT22;41758;51.992;5.890;2023-07-08T03:26:22;24.60;42.50
55828;DHT22;41758;51.992;5.890;2023-07-08T03:28:49;24.50;42.50
55828;DHT22;41758;51.992;5.890;2023-07-08T03:31:16;24.50;42.60
55828;DHT22;41758;51.992;5.890;2023-07-08T03:33:41;24.40;42.70
55828;DHT22;41758;51.992;5.890;2023-07-08T03:36:12;24.40;42.80
55828;DHT22;41758;51.992;5.890;2023-07-08T03:38:39;24.40;42.70
55828;DHT22;41758;51.992;5.890;2023-07-08T03:41:05;24.40;42.80
55828;DHT22;41758;51.992;5.890;2023-07-08T03:43:31;24.40;42.80
55828;DHT22;41758;51.992;5.890;2023-07-08T03:45:57;24.40;42.80
55828;DHT22;41758;51.992;5.890;2023-07-08T03:48:22;24.40;43.00
55828;DHT22;41758;51.992;5.890;2023-07-08T03:50:48;24.40;42.90
55828;DHT22;41758;51.992;5.890;2023-07-08T03:53:14;24.40;43.00
55828;DHT22;41758;51.992;5.890;2023-07-08T03:55:40;24.30;43.00
55828;DHT22;41758;51.992;5.890;2023-07-08T03:58:06;24.30;43.00
55828;DHT22;41758;51.992;5.890;2023-07-08T04:00:34;24.30;43.00
55828;DHT22;41758;51.992;5.890;2023-07-08T04:03:01;24.30;43.00
55828;DHT22;41758;51.992;5.890;2023-07-08T04:05:27;24.30;43.10
55828;DHT22;41758;51.992;5.890;2023-07-08T04:07:53;24.30;43.10
55828;DHT22;41758;51.992;5.890;2023-07-08T04:10:19;24.30;43.20
55828;DHT22;41758;51.992;5.890;2023-07-08T04:12:44;24.20;43.30
55828;DHT22;41758;51.992;5.890;2023-07-08T04:15:11;24.20;43.30
55828;DHT22;41758;51.992;5.890;2023-07-08T04:17:41;24.30;43.40
55828;DHT22;41758;51.992;5.890;2023-07-08T04:20:15;24.30;43.40
55828;DHT22;41758;51.992;5.890;2023-07-08T04:22:41;24.20;43.40
55828;DHT22;41758;51.992;5.890;2023-07-08T04:25:07;24.30;43.50
55828;DHT22;41758;51.992;5.890;2023-07-08T04:27:33;24.20;43.40
55828;DHT22;41758;51.992;5.890;2023-07-08T04:29:59;24.30;43.50
55828;DHT22;41758;51.992;5.890;2023-07-08T04:32:25;24.30;43.50
55828;DHT22;41758;51.992;5.890;2023-07-08T04:34:51;24.30;43.60
55828;DHT22;41758;51.992;5.890;2023-07-08T04:37:17;24.30;43.70
55828;DHT22;41758;51.992;5.890;2023-07-08T04:39:45;24.30;43.70
55828;DHT22;41758;51.992;5.890;2023-07-08T04:42:11;24.30;43.60
55828;DHT22;41758;51.992;5.890;2023-07-08T04:44:42;24.30;43.70
55828;DHT22;41758;51.992;5.890;2023-07-08T04:47:08;24.30;43.70
55828;DHT22;41758;51.992;5.890;2023-07-08T04:49:39;24.30;43.70
55828;DHT22;41758;51.992;5.890;2023-07-08T04:52:09;24.30;43.80
55828;DHT22;41758;51.992;5.890;2023-07-08T04:54:34;24.30;43.80
55828;DHT22;41758;51.992;5.890;2023-07-08T04:57:00;24.30;43.80
55828;DHT22;41758;51.992;5.890;2023-07-08T04:59:26;24.30;43.90
55828;DHT22;41758;51.992;5.890;2023-07-08T05:01:52;24.30;44.00
55828;DHT22;41758;51.992;5.890;2023-07-08T05:04:20;24.30;44.00
55828;DHT22;41758;51.992;5.890;2023-07-08T05:06:47;24.30;44.00
55828;DHT22;41758;51.992;5.890;2023-07-08T05:09:13;24.30;44.10
55828;DHT22;41758;51.992;5.890;2023-07-08T05:11:39;24.30;44.20
55828;DHT22;41758;51.992;5.890;2023-07-08T05:14:05;24.30;44.20
55828;DHT22;41758;51.992;5.890;2023-07-08T05:16:33;24.30;44.30
55828;DHT22;41758;51.992;5.890;2023-07-08T05:18:59;24.30;44.30
55828;DHT22;41758;51.992;5.890;2023-07-08T05:21:24;24.40;44.30
55828;DHT22;41758;51.992;5.890;2023-07-08T05:23:53;24.40;44.40
55828;DHT22;41758;51.992;5.890;2023-07-08T05:26:19;24.40;44.30
55828;DHT22;41758;51.992;5.890;2023-07-08T05:28:45;24.50;44.30
55828;DHT22;41758;51.992;5.890;2023-07-08T05:31:10;24.50;44.40
55828;DHT22;41758;51.992;5.890;2023-07-08T05:33:36;24.50;44.40
55828;DHT22;41758;51.992;5.890;2023-07-08T05:36:02;24.50;44.40
55828;DHT22;41758;51.992;5.890;2023-07-08T05:38:28;24.60;44.30
55828;DHT22;41758;51.992;5.890;2023-07-08T05:40:56;24.60;44.40
55828;DHT22;41758;51.992;5.890;2023-07-08T05:43:22;24.60;44.50
55828;DHT22;41758;51.992;5.890;2023-07-08T05:45:48;24.60;44.50
55828;DHT22;41758;51.992;5.890;2023-07-08T05:48:14;24.70;44.50
55828;DHT22;41758;51.992;5.890;2023-07-08T05:50:40;24.70;44.60
55828;DHT22;41758;51.992;5.890;2023-07-08T05:53:10;24.70;44.60
55828;DHT22;41758;51.992;5.890;2023-07-08T05:55:36;24.80;44.60
55828;DHT22;41758;51.992;5.890;2023-07-08T05:58:02;24.80;44.60
55828;DHT22;41758;51.992;5.890;2023-07-08T06:00:28;24.90;44.60
55828;DHT22;41758;51.992;5.890;2023-07-08T06:02:54;24.90;44.60
55828;DHT22;41758;51.992;5.890;2023-07-08T06:05:20;25.00;44.60
55828;DHT22;41758;51.992;5.890;2023-07-08T06:07:45;25.00;44.60
55828;DHT22;41758;51.992;5.890;2023-07-08T06:10:11;25.10;44.70
55828;DHT22;41758;51.992;5.890;2023-07-08T06:12:37;25.10;44.60
55828;DHT22;41758;51.992;5.890;2023-07-08T06:15:03;25.10;44.70
55828;DHT22;41758;51.992;5.890;2023-07-08T06:17:29;25.20;44.70
55828;DHT22;41758;51.992;5.890;2023-07-08T06:19:54;25.30;44.60
55828;DHT22;41758;51.992;5.890;2023-07-08T06:22:20;25.30;44.70
55828;DHT22;41758;51.992;5.890;2023-07-08T06:24:46;25.30;44.60
55828;DHT22;41758;51.992;5.890;2023-07-08T06:27:13;25.40;44.60
55828;DHT22;41758;51.992;5.890;2023-07-08T06:29:39;25.40;44.50
55828;DHT22;41758;51.992;5.890;2023-07-08T06:32:05;25.50;44.50
55828;DHT22;41758;51.992;5.890;2023-07-08T06:34:31;25.60;44.50
55828;DHT22;41758;51.992;5.890;2023-07-08T06:36:57;25.70;44.50
55828;DHT22;41758;51.992;5.890;2023-07-08T06:39:23;25.60;44.40
55828;DHT22;41758;51.992;5.890;2023-07-08T06:41:49;25.70;44.40
55828;DHT22;41758;51.992;5.890;2023-07-08T06:44:16;25.80;44.40
55828;DHT22;41758;51.992;5.890;2023-07-08T06:46:42;25.80;44.40
55828;DHT22;41758;51.992;5.890;2023-07-08T06:49:08;25.80;44.40
55828;DHT22;41758;51.992;5.890;2023-07-08T06:51:35;25.80;44.40
55828;DHT22;41758;51.992;5.890;2023-07-08T06:54:01;25.90;44.40
55828;DHT22;41758;51.992;5.890;2023-07-08T06:56:30;25.90;44.40
55828;DHT22;41758;51.992;5.890;2023-07-08T06:58:56;26.00;44.40
55828;DHT22;41758;51.992;5.890;2023-07-08T07:01:22;26.00;44.40
55828;DHT22;41758;51.992;5.890;2023-07-08T07:03:49;26.10;44.40
55828;DHT22;41758;51.992;5.890;2023-07-08T07:06:15;26.20;44.40
55828;DHT22;41758;51.992;5.890;2023-07-08T07:08:40;26.30;44.30
55828;DHT22;41758;51.992;5.890;2023-07-08T07:11:06;26.30;44.30
55828;DHT22;41758;51.992;5.890;2023-07-08T07:13:32;26.40;44.30
55828;DHT22;41758;51.992;5.890;2023-07-08T07:15:58;26.40;44.30
55828;DHT22;41758;51.992;5.890;2023-07-08T07:18:24;26.40;44.30
55828;DHT22;41758;51.992;5.890;2023-07-08T07:20:52;26.50;44.30
55828;DHT22;41758;51.992;5.890;2023-07-08T07:23:18;26.60;44.30
55828;DHT22;41758;51.992;5.890;2023-07-08T07:25:45;26.60;44.40
55828;DHT22;41758;51.992;5.890;2023-07-08T07:28:13;26.70;44.30
55828;DHT22;41758;51.992;5.890;2023-07-08T07:30:39;26.80;44.40
55828;DHT22;41758;51.992;5.890;2023-07-08T07:33:05;26.80;44.40
55828;DHT22;41758;51.992;5.890;2023-07-08T07:35:30;26.90;44.40
55828;DHT22;41758;51.992;5.890;2023-07-08T07:37:56;26.90;44.40
55828;DHT22;41758;51.992;5.890;2023-07-08T07:40:22;26.90;44.40
55828;DHT22;41758;51.992;5.890;2023-07-08T07:42:48;27.00;44.40
55828;DHT22;41758;51.992;5.890;2023-07-08T07:45:13;27.10;44.40
55828;DHT22;41758;51.992;5.890;2023-07-08T07:47:39;27.10;44.40
55828;DHT22;41758;51.992;5.890;2023-07-08T07:50:07;27.20;44.30
55828;DHT22;41758;51.992;5.890;2023-07-08T07:52:33;27.30;44.30
55828;DHT22;41758;51.992;5.890;2023-07-08T07:54:59;27.30;44.30
55828;DHT22;41758;51.992;5.890;2023-07-08T07:57:25;27.40;44.30
55828;DHT22;41758;51.992;5.890;2023-07-08T07:59:50;27.50;44.30
55828;DHT22;41758;51.992;5.890;2023-07-08T08:02:17;27.50;44.20
55828;DHT22;41758;51.992;5.890;2023-07-08T08:04:43;27.60;44.20
55828;DHT22;41758;51.992;5.890;2023-07-08T08:07:09;27.70;44.20
55828;DHT22;41758;51.992;5.890;2023-07-08T08:09:36;27.80;44.20
55828;DHT22;41758;51.992;5.890;2023-07-08T08:12:03;27.90;44.20
55828;DHT22;41758;51.992;5.890;2023-07-08T08:14:29;27.90;44.10
55828;DHT22;41758;51.992;5.890;2023-07-08T08:16:55;28.00;44.10
55828;DHT22;41758;51.992;5.890;2023-07-08T08:19:21;28.00;44.10
55828;DHT22;41758;51.992;5.890;2023-07-08T08:21:48;28.10;44.10
55828;DHT22;41758;51.992;5.890;2023-07-08T08:24:13;28.30;44.10
55828;DHT22;41758;51.992;5.890;2023-07-08T08:26:39;28.30;44.00
55828;DHT22;41758;51.992;5.890;2023-07-08T08:29:05;28.40;44.00
55828;DHT22;41758;51.992;5.890;2023-07-08T08:31:30;28.50;43.90
55828;DHT22;41758;51.992;5.890;2023-07-08T08:33:57;28.60;43.80
55828;DHT22;41758;51.992;5.890;2023-07-08T08:36:22;28.70;43.70
55828;DHT22;41758;51.992;5.890;2023-07-08T08:38:49;28.70;43.70
55828;DHT22;41758;51.992;5.890;2023-07-08T08:41:18;28.80;43.60
55828;DHT22;41758;51.992;5.890;2023-07-08T08:43:45;28.80;43.50
55828;DHT22;41758;51.992;5.890;2023-07-08T08:46:39;28.90;43.50
55828;DHT22;41758;51.992;5.890;2023-07-08T08:49:30;29.00;43.40
55828;DHT22;41758;51.992;5.890;2023-07-08T08:51:58;29.10;43.40
55828;DHT22;41758;51.992;5.890;2023-07-08T08:54:25;29.10;43.40
55828;DHT22;41758;51.992;5.890;2023-07-08T08:59:45;29.30;43.40
55828;DHT22;41758;51.992;5.890;2023-07-08T09:02:35;29.30;43.40
55828;DHT22;41758;51.992;5.890;2023-07-08T09:05:13;29.40;43.40
55828;DHT22;41758;51.992;5.890;2023-07-08T09:08:08;29.60;43.50
55828;DHT22;41758;51.992;5.890;2023-07-08T09:13:04;29.80;43.40
55828;DHT22;41758;51.992;5.890;2023-07-08T09:15:32;29.80;43.40
55828;DHT22;41758;51.992;5.890;2023-07-08T09:18:10;29.90;43.20
55828;DHT22;41758;51.992;5.890;2023-07-08T09:20:37;30.00;43.10
55828;DHT22;41758;51.992;5.890;2023-07-08T09:25:43;30.20;43.00
55828;DHT22;41758;51.992;5.890;2023-07-08T09:28:13;30.30;43.00
55828;DHT22;41758;51.992;5.890;2023-07-08T09:30:39;30.40;43.00
55828;DHT22;41758;51.992;5.890;2023-07-08T09:33:08;30.40;42.90
55828;DHT22;41758;51.992;5.890;2023-07-08T09:35:42;30.60;42.90
55828;DHT22;41758;51.992;5.890;2023-07-08T09:38:14;30.70;42.90
55828;DHT22;41758;51.992;5.890;2023-07-08T09:40:48;30.70;42.70
55828;DHT22;41758;51.992;5.890;2023-07-08T09:43:33;30.80;42.30
55828;DHT22;41758;51.992;5.890;2023-07-08T09:46:01;30.90;42.30
55828;DHT22;41758;51.992;5.890;2023-07-08T09:48:29;31.00;42.40
55828;DHT22;41758;51.992;5.890;2023-07-08T09:50:57;31.10;42.30
55828;DHT22;41758;51.992;5.890;2023-07-08T09:53:23;31.30;42.20
55828;DHT22;41758;51.992;5.890;2023-07-08T09:55:50;31.30;42.00
55828;DHT22;41758;51.992;5.890;2023-07-08T09:58:32;31.40;41.90
55828;DHT22;41758;51.992;5.890;2023-07-08T10:01:13;31.60;41.80
55828;DHT22;41758;51.992;5.890;2023-07-08T10:03:41;31.70;41.40
55828;DHT22;41758;51.992;5.890;2023-07-08T10:06:17;31.80;41.30
55828;DHT22;41758;51.992;5.890;2023-07-08T10:08:44;31.90;41.10
55828;DHT22;41758;51.992;5.890;2023-07-08T10:11:18;32.00;41.10
55828;DHT22;41758;51.992;5.890;2023-07-08T10:13:50;32.10;40.90
55828;DHT22;41758;51.992;5.890;2023-07-08T10:16:25;32.30;40.50
55828;DHT22;41758;51.992;5.890;2023-07-08T10:18:51;32.40;40.10
55828;DHT22;41758;51.992;5.890;2023-07-08T10:26:49;32.70;38.70
55828;DHT22;41758;51.992;5.890;2023-07-08T10:32:52;32.90;38.60
55828;DHT22;41758;51.992;5.890;2023-07-08T10:35:34;33.10;38.60
55828;DHT22;41758;51.992;5.890;2023-07-08T10:41:00;33.40;38.40
55828;DHT22;41758;51.992;5.890;2023-07-08T10:47:25;33.70;38.40
55828;DHT22;41758;51.992;5.890;2023-07-08T10:55:50;34.20;38.10
55828;DHT22;41758;51.992;5.890;2023-07-08T11:03:59;34.90;37.40
55828;DHT22;41758;51.992;5.890;2023-07-08T11:09:22;35.10;37.10
55828;DHT22;41758;51.992;5.890;2023-07-08T11:17:16;35.70;36.70
55828;DHT22;41758;51.992;5.890;2023-07-08T11:20:00;36.00;36.50
55828;DHT22;41758;51.992;5.890;2023-07-08T11:22:27;36.30;36.20
55828;DHT22;41758;51.992;5.890;2023-07-08T11:24:55;36.60;35.60
55828;DHT22;41758;51.992;5.890;2023-07-08T11:27:28;36.80;35.40
55828;DHT22;41758;51.992;5.890;2023-07-08T11:29:57;36.90;35.20
55828;DHT22;41758;51.992;5.890;2023-07-08T11:32:27;37.10;35.20
55828;DHT22;41758;51.992;5.890;2023-07-08T11:34:55;37.30;34.70
55828;DHT22;41758;51.992;5.890;2023-07-08T11:37:21;37.40;34.60
55828;DHT22;41758;51.992;5.890;2023-07-08T11:39:58;37.60;34.40
55828;DHT22;41758;51.992;5.890;2023-07-08T11:42:37;37.70;34.20
55828;DHT22;41758;51.992;5.890;2023-07-08T11:47:50;37.90;33.70
55828;DHT22;41758;51.992;5.890;2023-07-08T11:50:25;38.00;33.80
55828;DHT22;41758;51.992;5.890;2023-07-08T11:53:12;38.20;33.60
55828;DHT22;41758;51.992;5.890;2023-07-08T11:55:55;38.30;33.60
55828;DHT22;41758;51.992;5.890;2023-07-08T11:58:27;38.50;33.70
55828;DHT22;41758;51.992;5.890;2023-07-08T12:01:04;38.60;33.60
55828;DHT22;41758;51.992;5.890;2023-07-08T12:03:39;38.80;33.40
55828;DHT22;41758;51.992;5.890;2023-07-08T12:08:54;39.10;32.90
55828;DHT22;41758;51.992;5.890;2023-07-08T12:11:28;39.30;32.70
55828;DHT22;41758;51.992;5.890;2023-07-08T12:13:58;39.50;32.60
55828;DHT22;41758;51.992;5.890;2023-07-08T12:16:29;39.70;32.00
55828;DHT22;41758;51.992;5.890;2023-07-08T12:18:55;39.90;31.90
55828;DHT22;41758;51.992;5.890;2023-07-08T12:21:26;40.10;31.40
55828;DHT22;41758;51.992;5.890;2023-07-08T12:23:53;40.40;31.10
55828;DHT22;41758;51.992;5.890;2023-07-08T12:26:18;40.70;30.50
55828;DHT22;41758;51.992;5.890;2023-07-08T12:28:44;41.00;30.10
55828;DHT22;41758;51.992;5.890;2023-07-08T12:31:16;41.30;30.00
55828;DHT22;41758;51.992;5.890;2023-07-08T12:33:43;41.80;29.50
55828;DHT22;41758;51.992;5.890;2023-07-08T12:36:13;42.10;29.30
55828;DHT22;41758;51.992;5.890;2023-07-08T12:38:42;42.40;29.20
55828;DHT22;41758;51.992;5.890;2023-07-08T12:41:33;42.70;28.90
55828;DHT22;41758;51.992;5.890;2023-07-08T12:44:00;43.10;28.10
55828;DHT22;41758;51.992;5.890;2023-07-08T12:46:28;43.20;27.70
55828;DHT22;41758;51.992;5.890;2023-07-08T12:48:54;43.30;27.40
55828;DHT22;41758;51.992;5.890;2023-07-08T12:51:24;43.40;27.20
55828;DHT22;41758;51.992;5.890;2023-07-08T12:53:52;43.40;27.20
55828;DHT22;41758;51.992;5.890;2023-07-08T12:56:20;43.40;27.20
55828;DHT22;41758;51.992;5.890;2023-07-08T12:58:50;43.40;27.10
55828;DHT22;41758;51.992;5.890;2023-07-08T13:01:19;43.30;27.30
55828;DHT22;41758;51.992;5.890;2023-07-08T13:03:54;43.30;27.20
55828;DHT22;41758;51.992;5.890;2023-07-08T13:06:25;43.30;27.20
55828;DHT22;41758;51.992;5.890;2023-07-08T13:08:51;43.10;27.30
55828;DHT22;41758;51.992;5.890;2023-07-08T13:11:20;43.10;27.30
55828;DHT22;41758;51.992;5.890;2023-07-08T13:13:55;43.10;27.40
55828;DHT22;41758;51.992;5.890;2023-07-08T13:16:24;43.00;26.60
55828;DHT22;41758;51.992;5.890;2023-07-08T13:18:51;43.00;26.80
55828;DHT22;41758;51.992;5.890;2023-07-08T13:21:17;42.90;26.90
55828;DHT22;41758;51.992;5.890;2023-07-08T13:23:43;43.10;26.80
55828;DHT22;41758;51.992;5.890;2023-07-08T13:28:40;43.30;26.60
55828;DHT22;41758;51.992;5.890;2023-07-08T13:31:22;43.30;26.60
55828;DHT22;41758;51.992;5.890;2023-07-08T13:33:55;43.50;26.60
55828;DHT22;41758;51.992;5.890;2023-07-08T13:36:31;43.60;26.70
55828;DHT22;41758;51.992;5.890;2023-07-08T13:38:58;43.60;26.50
55828;DHT22;41758;51.992;5.890;2023-07-08T13:41:24;43.60;26.50
55828;DHT22;41758;51.992;5.890;2023-07-08T13:43:50;43.60;26.40
55828;DHT22;41758;51.992;5.890;2023-07-08T13:46:29;43.60;26.30
55828;DHT22;41758;51.992;5.890;2023-07-08T13:48:55;43.60;26.00
55828;DHT22;41758;51.992;5.890;2023-07-08T13:51:22;43.60;25.80
55828;DHT22;41758;51.992;5.890;2023-07-08T13:53:57;43.60;25.80
55828;DHT22;41758;51.992;5.890;2023-07-08T13:56:29;43.60;25.40
55828;DHT22;41758;51.992;5.890;2023-07-08T13:59:03;43.50;24.10
55828;DHT22;41758;51.992;5.890;2023-07-08T14:01:31;43.50;24.60
55828;DHT22;41758;51.992;5.890;2023-07-08T14:03:58;43.40;24.60
55828;DHT22;41758;51.992;5.890;2023-07-08T14:06:30;43.50;24.90
55828;DHT22;41758;51.992;5.890;2023-07-08T14:09:00;43.40;24.90
55828;DHT22;41758;51.992;5.890;2023-07-08T14:11:27;43.50;25.10
55828;DHT22;41758;51.992;5.890;2023-07-08T14:13:52;43.50;25.10
55828;DHT22;41758;51.992;5.890;2023-07-08T14:16:28;43.50;25.10
55828;DHT22;41758;51.992;5.890;2023-07-08T14:18:56;43.60;25.10
55828;DHT22;41758;51.992;5.890;2023-07-08T14:21:22;43.70;25.10
55828;DHT22;41758;51.992;5.890;2023-07-08T14:23:48;43.80;25.00
55828;DHT22;41758;51.992;5.890;2023-07-08T14:26:14;43.90;24.90
55828;DHT22;41758;51.992;5.890;2023-07-08T14:28:40;43.90;24.90
55828;DHT22;41758;51.992;5.890;2023-07-08T14:31:14;43.90;25.10
55828;DHT22;41758;51.992;5.890;2023-07-08T14:33:41;44.10;24.90
55828;DHT22;41758;51.992;5.890;2023-07-08T14:36:10;44.20;24.60
55828;DHT22;41758;51.992;5.890;2023-07-08T14:38:37;44.30;24.40
55828;DHT22;41758;51.992;5.890;2023-07-08T14:41:03;44.40;24.40
55828;DHT22;41758;51.992;5.890;2023-07-08T14:43:31;44.40;24.20
55828;DHT22;41758;51.992;5.890;2023-07-08T14:45:59;44.50;24.20
55828;DHT22;41758;51.992;5.890;2023-07-08T14:48:28;44.60;24.30
55828;DHT22;41758;51.992;5.890;2023-07-08T14:50:53;44.60;24.20
55828;DHT22;41758;51.992;5.890;2023-07-08T14:53:19;44.70;24.20
55828;DHT22;41758;51.992;5.890;2023-07-08T14:55:48;44.70;24.10
55828;DHT22;41758;51.992;5.890;2023-07-08T14:58:21;44.60;23.90
55828;DHT22;41758;51.992;5.890;2023-07-08T15:00:50;44.50;23.90
55828;DHT22;41758;51.992;5.890;2023-07-08T15:03:16;44.40;24.00
55828;DHT22;41758;51.992;5.890;2023-07-08T15:05:42;44.50;24.00
55828;DHT22;41758;51.992;5.890;2023-07-08T15:08:08;44.50;24.00
55828;DHT22;41758;51.992;5.890;2023-07-08T15:10:35;44.60;23.90
55828;DHT22;41758;51.992;5.890;2023-07-08T15:13:02;44.50;23.40
55828;DHT22;41758;51.992;5.890;2023-07-08T15:15:31;44.40;23.40
55828;DHT22;41758;51.992;5.890;2023-07-08T15:17:58;44.20;23.10
55828;DHT22;41758;51.992;5.890;2023-07-08T15:20:24;43.90;23.20
55828;DHT22;41758;51.992;5.890;2023-07-08T15:22:50;43.90;23.30
55828;DHT22;41758;51.992;5.890;2023-07-08T15:25:17;43.80;23.20
55828;DHT22;41758;51.992;5.890;2023-07-08T15:27:54;43.80;23.20
55828;DHT22;41758;51.992;5.890;2023-07-08T15:30:26;43.90;23.20
55828;DHT22;41758;51.992;5.890;2023-07-08T15:32:53;44.00;23.10
55828;DHT22;41758;51.992;5.890;2023-07-08T15:35:21;44.00;23.10
55828;DHT22;41758;51.992;5.890;2023-07-08T15:37:47;44.10;23.20
55828;DHT22;41758;51.992;5.890;2023-07-08T15:40:15;44.30;23.10
55828;DHT22;41758;51.992;5.890;2023-07-08T15:42:43;44.40;23.10
55828;DHT22;41758;51.992;5.890;2023-07-08T15:45:15;44.60;22.90
55828;DHT22;41758;51.992;5.890;2023-07-08T15:47:41;44.80;22.60
55828;DHT22;41758;51.992;5.890;2023-07-08T15:50:16;44.90;22.70
55828;DHT22;41758;51.992;5.890;2023-07-08T15:52:42;45.00;22.60
55828;DHT22;41758;51.992;5.890;2023-07-08T15:55:11;44.90;22.60
55828;DHT22;41758;51.992;5.890;2023-07-08T15:57:44;44.60;22.60
55828;DHT22;41758;51.992;5.890;2023-07-08T16:00:22;44.30;21.50
55828;DHT22;41758;51.992;5.890;2023-07-08T16:02:49;44.00;21.70
55828;DHT22;41758;51.992;5.890;2023-07-08T16:05:17;44.00;22.20
55828;DHT22;41758;51.992;5.890;2023-07-08T16:07:45;44.30;22.40
55828;DHT22;41758;51.992;5.890;2023-07-08T16:10:11;44.60;22.60
55828;DHT22;41758;51.992;5.890;2023-07-08T16:12:37;44.80;22.50
55828;DHT22;41758;51.992;5.890;2023-07-08T16:15:03;44.60;22.20
55828;DHT22;41758;51.992;5.890;2023-07-08T16:17:33;44.30;21.90
55828;DHT22;41758;51.992;5.890;2023-07-08T16:20:01;43.80;22.10
55828;DHT22;41758;51.992;5.890;2023-07-08T16:22:27;43.40;22.30
55828;DHT22;41758;51.992;5.890;2023-07-08T16:24:53;42.90;22.50
55828;DHT22;41758;51.992;5.890;2023-07-08T16:27:18;42.60;22.80
55828;DHT22;41758;51.992;5.890;2023-07-08T16:29:44;42.40;23.10
55828;DHT22;41758;51.992;5.890;2023-07-08T16:32:13;42.40;23.20